Terminal Aerodrome Forecast
Issued by NWS Brownsville, TX

Home | Current Version | Previous Version | Text Only | Print | Product List | Glossary On
Versions: 1 2 3 4 5 6 7 8 9 10 11 12 13 14 15 16 17 18 19 20 21 22 23 24 25 26 27
196
FTUS44 KBRO 031137
TAFHRL
TAF
KHRL 031137Z 0312/0412 17012KT P6SM OVC050
     FM031500 17017G23KT P6SM OVC025
     FM031800 17021G29KT P6SM BKN035
     FM040000 15007KT P6SM OVC020
     FM040600 15008KT 5SM BR VCSH OVC012 PROB30 0406/0412 4SM SHRA=

USA.gov is the U.S. government's official web portal to all federal, state and local government web resources and services.